createdAt,value
2017-11-10T00:01:28.606Z,101224
2017-11-10T00:03:56.773Z,101214
2017-11-10T00:06:24.915Z,101220
2017-11-10T00:08:53.105Z,101210
2017-11-10T00:11:21.510Z,101212
2017-11-10T00:13:49.677Z,101214
2017-11-10T00:16:17.823Z,101218
2017-11-10T00:18:45.992Z,101216
2017-11-10T00:21:14.135Z,101215
2017-11-10T00:23:42.854Z,101212
2017-11-10T00:26:11.230Z,101207
2017-11-10T00:28:39.375Z,101206
2017-11-10T00:31:07.569Z,101202
2017-11-10T00:33:35.760Z,101199
2017-11-10T00:36:03.923Z,101203
2017-11-10T00:38:32.104Z,101205
2017-11-10T00:41:00.264Z,101205
2017-11-10T00:43:28.416Z,101209
2017-11-10T00:45:56.628Z,101200
2017-11-10T00:48:25.579Z,101210
2017-11-10T00:50:53.778Z,101204
2017-11-10T00:53:22.018Z,101219
2017-11-10T00:55:50.188Z,101200
2017-11-10T00:58:18.409Z,101203
2017-11-10T01:00:46.616Z,101199
2017-11-10T01:03:14.776Z,101201
2017-11-10T01:05:42.936Z,101197
2017-11-10T01:08:11.084Z,101194
2017-11-10T01:10:39.650Z,101194
2017-11-10T01:13:07.824Z,101189
2017-11-10T01:15:35.996Z,101188
2017-11-10T01:18:04.602Z,101195
2017-11-10T01:20:35.281Z,101195
2017-11-10T01:23:04.208Z,101188
2017-11-10T01:25:32.380Z,101177
2017-11-10T01:28:00.537Z,101175
2017-11-10T01:30:28.732Z,101182
2017-11-10T01:32:56.972Z,101174
2017-11-10T01:35:25.892Z,101182
2017-11-10T01:37:54.062Z,101174
2017-11-10T01:40:22.477Z,101171
2017-11-10T01:42:50.657Z,101164
2017-11-10T01:45:18.808Z,101161
2017-11-10T01:47:46.968Z,101157
2017-11-10T01:50:15.111Z,101155
2017-11-10T01:52:44.039Z,101150
2017-11-10T01:55:12.194Z,101136
2017-11-10T01:57:40.364Z,101149
2017-11-10T02:00:08.536Z,101147
2017-11-10T02:02:36.705Z,101146
2017-11-10T02:05:05.488Z,101137
2017-11-10T02:07:33.665Z,101122
2017-11-10T02:10:01.816Z,101116
2017-11-10T02:12:30.809Z,101109
2017-11-10T02:14:59.745Z,101110
2017-11-10T02:17:27.934Z,101109
2017-11-10T02:19:56.106Z,101096
2017-11-10T02:22:24.320Z,101107
2017-11-10T02:24:53.236Z,101092
2017-11-10T02:27:21.383Z,101093
2017-11-10T02:29:50.323Z,101086
2017-11-10T02:32:18.476Z,101085
2017-11-10T02:34:51.564Z,101096
2017-11-10T02:37:19.720Z,101074
2017-11-10T02:39:47.899Z,101067
2017-11-10T02:42:16.061Z,101076
2017-11-10T02:44:45.115Z,101076
2017-11-10T02:47:13.277Z,101062
2017-11-10T02:49:41.452Z,101069
2017-11-10T02:52:09.600Z,101071
2017-11-10T02:54:37.778Z,101060
2017-11-10T02:57:05.946Z,101063
2017-11-10T02:59:34.128Z,101063
2017-11-10T03:02:02.288Z,101050
2017-11-10T03:04:30.472Z,101053
2017-11-10T03:06:58.644Z,101042
2017-11-10T03:09:26.817Z,101045
2017-11-10T03:11:54.979Z,101034
2017-11-10T03:14:23.163Z,101028
2017-11-10T03:16:51.321Z,101019
2017-11-10T03:19:19.535Z,101017
2017-11-10T03:21:47.709Z,101011
2017-11-10T03:24:15.880Z,101011
2017-11-10T03:26:44.099Z,101011
2017-11-10T03:29:12.700Z,101008
2017-11-10T03:31:40.869Z,101000
2017-11-10T03:34:09.020Z,100997
2017-11-10T03:36:37.962Z,101008
2017-11-10T03:39:06.120Z,101006
2017-11-10T03:41:34.296Z,100998
2017-11-10T03:44:02.459Z,101003
2017-11-10T03:46:30.652Z,101000
2017-11-10T03:48:58.812Z,100999
2017-11-10T03:51:26.982Z,100991
2017-11-10T03:53:55.182Z,100993
2017-11-10T03:56:23.353Z,100993
2017-11-10T03:58:51.513Z,100983
2017-11-10T04:01:19.695Z,100986
2017-11-10T04:03:47.851Z,100985
2017-11-10T04:06:16.012Z,100981
2017-11-10T04:08:44.167Z,100986
2017-11-10T04:11:12.369Z,100982
2017-11-10T04:13:40.516Z,100980
2017-11-10T04:16:08.667Z,100975
2017-11-10T04:18:37.601Z,100986
2017-11-10T04:21:05.760Z,100976
2017-11-10T04:23:33.946Z,100961
2017-11-10T04:26:02.468Z,100970
2017-11-10T04:28:30.656Z,100974
2017-11-10T04:30:59.575Z,100966
2017-11-10T04:33:27.748Z,100974
2017-11-10T04:35:55.897Z,100974
2017-11-10T04:38:24.080Z,100959
2017-11-10T04:40:52.234Z,100951
2017-11-10T04:43:21.164Z,100954
2017-11-10T04:45:49.512Z,100949
2017-11-10T04:48:18.456Z,100940
2017-11-10T04:50:46.633Z,100949
2017-11-10T04:53:14.818Z,100952
2017-11-10T04:55:42.998Z,100964
2017-11-10T04:58:11.172Z,100973
2017-11-10T05:00:39.323Z,100968
2017-11-10T05:03:07.496Z,100955
2017-11-10T05:05:35.646Z,100958
2017-11-10T05:08:03.827Z,100952
2017-11-10T05:10:31.996Z,100958
2017-11-10T05:13:00.153Z,100964
2017-11-10T05:15:28.354Z,100953
2017-11-10T05:17:56.511Z,100963
2017-11-10T05:20:24.692Z,100957
2017-11-10T05:22:52.852Z,100939
2017-11-10T05:25:21.580Z,100947
2017-11-10T05:27:49.740Z,100945
2017-11-10T05:30:17.918Z,100948
2017-11-10T05:32:46.077Z,100936
2017-11-10T05:35:14.253Z,100927
2017-11-10T05:37:42.405Z,100935
2017-11-10T05:40:10.576Z,100937
2017-11-10T05:42:38.773Z,100928
2017-11-10T05:45:06.964Z,100932
2017-11-10T05:47:35.134Z,100941
2017-11-10T05:50:03.317Z,100943
2017-11-10T05:52:32.244Z,100941
2017-11-10T05:55:00.418Z,100935
2017-11-10T05:57:28.580Z,100941
2017-11-10T05:59:56.762Z,100933
2017-11-10T06:02:24.916Z,100932
2017-11-10T06:04:53.856Z,100941
2017-11-10T06:07:22.022Z,100925
2017-11-10T06:09:50.220Z,100934
2017-11-10T06:12:18.372Z,100932
2017-11-10T06:14:46.537Z,100937
2017-11-10T06:17:14.729Z,100919
2017-11-10T06:19:42.892Z,100928
2017-11-10T06:22:11.060Z,100919
2017-11-10T06:24:39.214Z,100915
2017-11-10T06:27:07.409Z,100915
2017-11-10T06:29:35.603Z,100906
2017-11-10T06:32:03.773Z,100903
2017-11-10T06:34:31.937Z,100911
2017-11-10T06:37:00.113Z,100904
2017-11-10T06:39:28.262Z,100903
2017-11-10T06:41:56.438Z,100908
2017-11-10T06:44:24.597Z,100897
2017-11-10T06:46:52.801Z,100892
2017-11-10T06:49:20.963Z,100888
2017-11-10T06:51:49.149Z,100892
2017-11-10T06:54:17.336Z,100886
2017-11-10T06:56:45.583Z,100893
2017-11-10T06:59:13.731Z,100903
2017-11-10T07:01:41.897Z,100893
2017-11-10T07:04:10.064Z,100878
2017-11-10T07:06:38.997Z,100888
2017-11-10T07:09:07.645Z,100885
2017-11-10T07:11:35.817Z,100890
2017-11-10T07:14:03.981Z,100871
2017-11-10T07:16:32.924Z,100875
2017-11-10T07:19:01.085Z,100876
2017-11-10T07:21:29.260Z,100866
2017-11-10T07:23:57.905Z,100866
2017-11-10T07:26:26.084Z,100869
2017-11-10T07:28:54.232Z,100862
2017-11-10T07:31:23.195Z,100869
2017-11-10T07:33:51.363Z,100859
2017-11-10T07:36:19.546Z,100862
2017-11-10T07:38:47.709Z,100863
2017-11-10T07:41:15.879Z,100859
2017-11-10T07:43:44.052Z,100862
2017-11-10T07:46:12.908Z,100844
2017-11-10T07:48:41.085Z,100835
2017-11-10T07:51:09.247Z,100834
2017-11-10T07:53:37.413Z,100845
2017-11-10T07:56:05.572Z,100833
2017-11-10T07:58:34.583Z,100826
2017-11-10T08:01:02.741Z,100828
2017-11-10T08:03:32.301Z,100825
2017-11-10T08:06:00.883Z,100827
2017-11-10T08:08:29.160Z,100836
2017-11-10T08:10:57.314Z,100820
2017-11-10T08:13:25.489Z,100827
2017-11-10T08:15:53.646Z,100823
2017-11-10T08:18:21.813Z,100823
2017-11-10T08:20:49.981Z,100809
2017-11-10T08:23:18.153Z,100800
2017-11-10T08:25:46.310Z,100797
2017-11-10T08:28:15.247Z,100788
2017-11-10T08:30:43.440Z,100782
2017-11-10T08:33:11.618Z,100781
2017-11-10T08:35:39.772Z,100780
2017-11-10T08:38:07.944Z,100783
2017-11-10T08:40:36.084Z,100769
2017-11-10T08:43:04.255Z,100772
2017-11-10T08:45:32.420Z,100758
2017-11-10T08:48:00.596Z,100757
2017-11-10T08:50:28.812Z,100750
2017-11-10T08:52:56.996Z,100745
2017-11-10T08:55:25.165Z,100734
2017-11-10T08:57:53.356Z,100736
2017-11-10T09:00:21.509Z,100734
2017-11-10T09:02:49.664Z,100724
2017-11-10T09:05:17.838Z,100708
2017-11-10T09:07:45.996Z,100720
2017-11-10T09:10:14.167Z,100704
2017-11-10T09:12:42.324Z,100691
2017-11-10T09:15:10.507Z,100694
2017-11-10T09:17:38.660Z,100702
2017-11-10T09:20:07.592Z,100687
2017-11-10T09:22:35.749Z,100682
2017-11-10T09:25:03.937Z,100663
2017-11-10T09:27:32.092Z,100650
2017-11-10T09:30:06.752Z,100645
2017-11-10T09:35:39.387Z,100650
2017-11-10T09:38:08.302Z,100663
2017-11-10T09:40:42.980Z,100650
2017-11-10T09:43:16.742Z,100649
2017-11-10T09:45:45.220Z,100651
2017-11-10T09:48:19.017Z,100681
2017-11-10T09:50:52.801Z,100673
2017-11-10T09:56:33.167Z,100663
2017-11-10T09:59:05.089Z,100657
2017-11-10T10:01:38.964Z,100645
2017-11-10T10:04:12.647Z,100640
2017-11-10T10:06:47.312Z,100636
2017-11-10T10:09:17.614Z,100637
2017-11-10T10:11:52.015Z,100631
2017-11-10T10:17:30.022Z,100618
2017-11-10T10:23:10.120Z,100608
2017-11-10T10:25:38.292Z,100597
2017-11-10T10:28:06.452Z,100589
2017-11-10T10:30:35.402Z,100586
2017-11-10T10:33:03.564Z,100576
2017-11-10T10:35:31.751Z,100587
2017-11-10T10:38:00.017Z,100575
2017-11-10T10:40:28.168Z,100574
2017-11-10T10:42:56.345Z,100576
2017-11-10T10:45:24.506Z,100553
2017-11-10T10:47:52.714Z,100554
2017-11-10T10:50:20.864Z,100543
2017-11-10T10:52:49.059Z,100522
2017-11-10T10:55:17.207Z,100541
2017-11-10T10:57:45.388Z,100523
2017-11-10T11:00:13.550Z,100512
2017-11-10T11:02:41.736Z,100514
2017-11-10T11:05:09.897Z,100502
2017-11-10T11:07:38.079Z,100493
2017-11-10T11:10:06.470Z,100489
2017-11-10T11:12:34.654Z,100478
2017-11-10T11:15:02.831Z,100471
2017-11-10T11:17:30.993Z,100468
2017-11-10T11:19:59.144Z,100450
2017-11-10T11:22:28.321Z,100452
2017-11-10T11:24:56.524Z,100462
2017-11-10T11:27:24.672Z,100467
2017-11-10T11:29:52.887Z,100453
2017-11-10T11:32:21.045Z,100455
2017-11-10T11:34:49.232Z,100446
2017-11-10T11:37:17.372Z,100452
2017-11-10T11:39:45.824Z,100437
2017-11-10T11:42:13.993Z,100429
2017-11-10T11:44:43.567Z,100431
2017-11-10T11:47:11.727Z,100418
2017-11-10T11:49:40.217Z,100401
2017-11-10T11:52:08.378Z,100394
2017-11-10T11:54:36.578Z,100414
2017-11-10T11:57:04.740Z,100406
2017-11-10T11:59:32.913Z,100389
2017-11-10T12:02:01.069Z,100389
2017-11-10T12:04:29.239Z,100390
2017-11-10T12:06:59.120Z,100394
2017-11-10T12:09:27.293Z,100380
2017-11-10T12:11:56.285Z,100376
2017-11-10T12:14:24.445Z,100366
2017-11-10T12:16:53.366Z,100361
2017-11-10T12:19:21.550Z,100361
2017-11-10T12:21:49.707Z,100351
2017-11-10T12:24:17.872Z,100368
2017-11-10T12:26:46.024Z,100353
2017-11-10T12:29:14.962Z,100355
2017-11-10T12:31:43.131Z,100342
2017-11-10T12:34:11.385Z,100341
2017-11-10T12:36:39.551Z,100334
2017-11-10T12:39:07.737Z,100339
2017-11-10T12:41:35.900Z,100340
2017-11-10T12:44:04.068Z,100337
2017-11-10T12:46:32.282Z,100319
2017-11-10T12:49:00.994Z,100322
2017-11-10T12:51:29.277Z,100307
2017-11-10T12:53:58.192Z,100312
2017-11-10T12:56:26.378Z,100299
2017-11-10T12:58:54.586Z,100292
2017-11-10T13:01:22.762Z,100283
2017-11-10T13:03:50.929Z,100275
2017-11-10T13:06:19.108Z,100284
2017-11-10T13:08:47.261Z,100264
2017-11-10T13:11:15.429Z,100270
2017-11-10T13:13:43.588Z,100260
2017-11-10T13:16:11.765Z,100268
2017-11-10T13:18:39.926Z,100269
2017-11-10T13:21:08.096Z,100260
2017-11-10T13:23:46.160Z,100238
2017-11-10T13:26:14.640Z,100234
2017-11-10T13:28:42.814Z,100257
2017-11-10T13:31:11.065Z,100240
2017-11-10T13:33:39.221Z,100235
2017-11-10T13:36:07.399Z,100232
2017-11-10T13:38:35.978Z,100243
2017-11-10T13:41:04.145Z,100233
2017-11-10T13:43:32.302Z,100228
2017-11-10T13:46:00.471Z,100234
2017-11-10T13:48:28.641Z,100227
2017-11-10T13:50:56.819Z,100222
2017-11-10T13:53:24.972Z,100212
2017-11-10T13:55:54.417Z,100208
2017-11-10T13:58:22.582Z,100207
2017-11-10T14:00:51.493Z,100208
2017-11-10T14:03:19.653Z,100207
2017-11-10T14:05:47.844Z,100190
2017-11-10T14:08:16.024Z,100198
2017-11-10T14:10:44.189Z,100190
2017-11-10T14:13:12.377Z,100169
2017-11-10T14:15:40.650Z,100158
2017-11-10T14:18:08.873Z,100159
2017-11-10T14:20:37.769Z,100161
2017-11-10T14:23:05.937Z,100158
2017-11-10T14:25:34.079Z,100158
2017-11-10T14:28:03.012Z,100167
2017-11-10T14:30:31.169Z,100151
2017-11-10T14:32:59.467Z,100158
2017-11-10T14:35:27.631Z,100152
2017-11-10T14:37:55.800Z,100140
2017-11-10T14:40:24.362Z,100140
2017-11-10T14:42:52.536Z,100140
2017-11-10T14:45:20.696Z,100133
2017-11-10T14:47:49.632Z,100128
2017-11-10T14:50:17.787Z,100128
2017-11-10T14:52:45.972Z,100130
2017-11-10T14:55:14.127Z,100116
2017-11-10T14:57:42.332Z,100118
2017-11-10T15:00:10.500Z,100112
2017-11-10T15:02:39.098Z,100099
2017-11-10T15:05:07.275Z,100093
2017-11-10T15:07:35.468Z,100119
2017-11-10T15:10:03.646Z,100092
2017-11-10T15:12:32.580Z,100088
2017-11-10T15:15:00.742Z,100076
2017-11-10T15:17:28.907Z,100093
2017-11-10T15:19:57.830Z,100076
2017-11-10T15:22:26.003Z,100073
2017-11-10T15:24:54.868Z,100066
2017-11-10T15:27:23.074Z,100064
2017-11-10T15:29:51.234Z,100062
2017-11-10T15:32:19.407Z,100080
2017-11-10T15:34:47.585Z,100054
2017-11-10T15:37:15.740Z,100044
2017-11-10T15:39:43.922Z,100054
2017-11-10T15:42:12.124Z,100031
2017-11-10T15:44:40.375Z,100022
2017-11-10T15:47:08.565Z,100028
2017-11-10T15:49:37.560Z,100035
2017-11-10T15:52:05.730Z,100019
2017-11-10T15:54:33.913Z,100029
2017-11-10T15:57:02.065Z,100012
2017-11-10T15:59:30.318Z,100017
2017-11-10T16:01:58.468Z,99991
2017-11-10T16:04:26.636Z,99998
2017-11-10T16:06:55.560Z,99996
2017-11-10T16:09:23.744Z,100007
2017-11-10T16:11:51.912Z,100010
2017-11-10T16:14:20.096Z,100004
2017-11-10T16:16:48.249Z,100008
2017-11-10T16:19:16.432Z,99975
2017-11-10T16:21:44.576Z,99969
2017-11-10T16:24:12.728Z,99970
2017-11-10T16:26:42.124Z,99973
2017-11-10T16:29:11.045Z,99945
2017-11-10T16:31:39.214Z,99947
2017-11-10T16:34:07.370Z,99938
2017-11-10T16:36:36.344Z,99928
2017-11-10T16:39:04.520Z,99945
2017-11-10T16:41:33.461Z,99944
2017-11-10T16:44:01.621Z,99951
2017-11-10T16:46:29.839Z,99933
2017-11-10T16:48:58.004Z,99943
2017-11-10T16:51:26.182Z,99961
2017-11-10T16:53:54.348Z,99948
2017-11-10T16:56:22.955Z,99954
2017-11-10T16:58:51.185Z,99941
2017-11-10T17:01:19.350Z,99932
2017-11-10T17:03:47.524Z,99929
2017-11-10T17:06:15.694Z,99941
2017-11-10T17:08:43.843Z,99942
2017-11-10T17:11:12.773Z,99937
2017-11-10T17:13:40.937Z,99975
2017-11-10T17:16:09.126Z,99921
2017-11-10T17:18:37.793Z,99936
2017-11-10T17:21:06.314Z,99941
2017-11-10T17:23:34.480Z,99929
2017-11-10T17:26:02.629Z,99930
2017-11-10T17:28:30.808Z,99938
2017-11-10T17:30:58.968Z,99946
2017-11-10T17:33:27.348Z,99944
2017-11-10T17:35:55.529Z,99974
2017-11-10T17:38:23.705Z,99953
2017-11-10T17:40:51.884Z,99965
2017-11-10T17:43:20.055Z,99968
2017-11-10T17:45:48.243Z,99968
2017-11-10T17:48:16.405Z,99988
2017-11-10T17:50:44.567Z,99970
2017-11-10T17:53:12.738Z,99993
2017-11-10T17:55:40.909Z,99988
2017-11-10T17:58:09.089Z,99982
2017-11-10T18:00:37.285Z,99991
2017-11-10T18:03:05.431Z,99976
2017-11-10T18:05:33.599Z,99985
2017-11-10T18:08:02.913Z,99991
2017-11-10T18:10:31.076Z,100008
2017-11-10T18:12:59.249Z,100014
2017-11-10T18:15:27.424Z,100022
2017-11-10T18:17:55.586Z,100021
2017-11-10T18:20:23.753Z,100019
2017-11-10T18:22:51.906Z,100009
2017-11-10T18:25:20.130Z,100012
2017-11-10T18:27:48.287Z,100031
2017-11-10T18:30:16.465Z,100027
2017-11-10T18:32:44.617Z,100042
2017-11-10T18:35:12.781Z,100057
2017-11-10T18:37:40.936Z,100047
2017-11-10T18:40:09.099Z,100043
2017-11-10T18:42:38.025Z,100056
2017-11-10T18:45:06.220Z,100048
2017-11-10T18:47:34.379Z,100049
2017-11-10T18:50:02.543Z,100059
2017-11-10T18:52:30.754Z,100068
2017-11-10T18:55:02.748Z,100059
2017-11-10T18:57:31.672Z,100061
2017-11-10T18:59:59.856Z,100056
2017-11-10T19:02:28.047Z,100042
2017-11-10T19:04:56.210Z,100044
2017-11-10T19:07:24.392Z,100045
2017-11-10T19:09:52.548Z,100048
2017-11-10T19:12:20.724Z,100052
2017-11-10T19:14:48.908Z,100053
2017-11-10T19:17:17.056Z,100060
2017-11-10T19:19:45.199Z,100058
2017-11-10T19:22:14.133Z,100051
2017-11-10T19:24:42.279Z,100062
2017-11-10T19:27:10.456Z,100059
2017-11-10T19:29:38.596Z,100056
2017-11-10T19:32:07.531Z,100061
2017-11-10T19:34:35.680Z,100058
2017-11-10T19:37:03.826Z,100061
2017-11-10T19:39:32.788Z,100064
2017-11-10T19:42:00.932Z,100073
2017-11-10T19:44:29.088Z,100058
2017-11-10T19:46:57.237Z,100055
2017-11-10T19:49:26.194Z,100047
2017-11-10T19:51:54.341Z,100061
2017-11-10T19:54:22.519Z,100061
2017-11-10T19:56:50.671Z,100076
2017-11-10T19:59:18.827Z,100080
2017-11-10T20:01:47.372Z,100091
2017-11-10T20:04:15.533Z,100080
2017-11-10T20:06:43.680Z,100080
2017-11-10T20:09:11.885Z,100077
2017-11-10T20:11:40.032Z,100088
2017-11-10T20:14:08.173Z,100087
2017-11-10T20:16:37.536Z,100076
2017-11-10T20:19:05.691Z,100094
2017-11-10T20:21:33.861Z,100101
2017-11-10T20:24:02.001Z,100105
2017-11-10T20:26:30.875Z,100102
2017-11-10T20:28:59.816Z,100109
2017-11-10T20:31:27.996Z,100102
2017-11-10T20:33:56.146Z,100103
2017-11-10T20:36:24.308Z,100099
2017-11-10T20:38:52.460Z,100105
2017-11-10T20:41:21.394Z,100106
2017-11-10T20:43:49.550Z,100103
2017-11-10T20:46:17.755Z,100101
2017-11-10T20:48:45.899Z,100111
2017-11-10T20:51:14.047Z,100119
2017-11-10T20:53:43.164Z,100111
2017-11-10T20:56:11.307Z,100103
2017-11-10T20:58:40.864Z,100101
2017-11-10T21:01:09.006Z,100106
2017-11-10T21:03:37.641Z,100108
2017-11-10T21:06:05.789Z,100111
2017-11-10T21:08:33.956Z,100118
2017-11-10T21:11:02.126Z,100102
2017-11-10T21:13:30.288Z,100117
2017-11-10T21:15:58.432Z,100115
2017-11-10T21:18:27.673Z,100118
2017-11-10T21:20:55.811Z,100112
2017-11-10T21:23:24.743Z,100123
2017-11-10T21:25:52.896Z,100126
2017-11-10T21:28:21.081Z,100115
2017-11-10T21:30:49.742Z,100119
2017-11-10T21:33:17.892Z,100134
2017-11-10T21:35:46.835Z,100117
2017-11-10T21:38:14.991Z,100137
2017-11-10T21:40:43.163Z,100119
2017-11-10T21:43:11.316Z,100124
2017-11-10T21:45:39.481Z,100123
2017-11-10T21:48:07.632Z,100137
2017-11-10T21:50:35.830Z,100131
2017-11-10T21:53:05.443Z,100121
2017-11-10T21:55:33.614Z,100126
2017-11-10T21:58:01.764Z,100142
2017-11-10T22:00:30.714Z,100129
2017-11-10T22:02:58.856Z,100112
2017-11-10T22:05:27.063Z,100114
2017-11-10T22:07:55.217Z,100133
2017-11-10T22:10:23.443Z,100127
2017-11-10T22:12:51.775Z,100116
2017-11-10T22:15:19.939Z,100117
2017-11-10T22:17:48.684Z,100122
2017-11-10T22:20:16.863Z,100125
2017-11-10T22:22:45.789Z,100137
2017-11-10T22:25:13.929Z,100142
2017-11-10T22:27:42.869Z,100132
2017-11-10T22:30:11.014Z,100137
2017-11-10T22:32:39.181Z,100131
2017-11-10T22:35:07.342Z,100139
2017-11-10T22:37:35.561Z,100139
2017-11-10T22:40:03.704Z,100146
2017-11-10T22:42:32.043Z,100147
2017-11-10T22:45:00.192Z,100146
2017-11-10T22:47:28.345Z,100150
2017-11-10T22:49:56.729Z,100128
2017-11-10T22:52:24.893Z,100158
2017-11-10T22:54:53.034Z,100152
2017-11-10T22:57:22.028Z,100147
2017-11-10T22:59:50.949Z,100134
2017-11-10T23:02:19.541Z,100140
2017-11-10T23:04:47.707Z,100153
2017-11-10T23:07:15.869Z,100147
2017-11-10T23:09:44.044Z,100170
2017-11-10T23:12:12.189Z,100135
2017-11-10T23:14:41.120Z,100155
2017-11-10T23:17:09.296Z,100152
2017-11-10T23:19:37.472Z,100166
2017-11-10T23:22:05.641Z,100157
2017-11-10T23:24:33.796Z,100147
2017-11-10T23:27:02.843Z,100162
2017-11-10T23:29:31.079Z,100158
2017-11-10T23:31:59.216Z,100153
2017-11-10T23:34:27.372Z,100151
2017-11-10T23:36:56.287Z,100158
2017-11-10T23:39:24.456Z,100145
2017-11-10T23:41:52.602Z,100150
2017-11-10T23:44:20.778Z,100163
2017-11-10T23:46:49.709Z,100182
2017-11-10T23:49:17.883Z,100169
2017-11-10T23:51:46.072Z,100175
2017-11-10T23:54:14.251Z,100152
2017-11-10T23:56:42.405Z,100152
2017-11-10T23:59:10.941Z,100171
